createdAt,value
2018-12-04T00:00:44.321Z,7.10
2018-12-04T00:03:12.560Z,7.20
2018-12-04T00:05:40.764Z,7.10
2018-12-04T00:08:08.975Z,7.10
2018-12-04T00:10:37.265Z,7.20
2018-12-04T00:13:05.470Z,7.20
2018-12-04T00:15:33.633Z,7.10
2018-12-04T00:18:01.842Z,7.10
2018-12-04T00:20:30.055Z,7.20
2018-12-04T00:22:58.222Z,7.10
2018-12-04T00:25:26.400Z,7.00
2018-12-04T00:27:54.640Z,7.00
2018-12-04T00:30:22.820Z,7.00
2018-12-04T00:32:50.972Z,7.00
2018-12-04T00:35:19.174Z,7.00
2018-12-04T00:37:47.345Z,6.90
2018-12-04T00:40:15.522Z,7.00
2018-12-04T00:42:43.761Z,7.00
2018-12-04T00:45:12.026Z,7.00
2018-12-04T00:53:34.743Z,7.00
2018-12-04T00:56:02.939Z,7.00
2018-12-04T00:58:31.104Z,7.00
2018-12-04T01:00:59.391Z,7.00
2018-12-04T01:03:27.566Z,7.00
2018-12-04T01:05:55.739Z,7.00
2018-12-04T01:08:23.945Z,7.00
2018-12-04T01:10:52.268Z,7.00
2018-12-04T01:13:20.437Z,7.00
2018-12-04T01:15:48.691Z,6.90
2018-12-04T01:18:16.968Z,6.80
2018-12-04T01:20:45.128Z,6.90
2018-12-04T01:23:13.324Z,6.80
2018-12-04T01:25:41.529Z,6.80
2018-12-04T01:28:09.866Z,6.80
2018-12-04T01:30:38.034Z,6.80
2018-12-04T01:33:06.208Z,6.70
2018-12-04T01:35:34.414Z,6.60
2018-12-04T01:38:02.577Z,6.70
2018-12-04T01:40:30.809Z,6.70
2018-12-04T01:42:58.978Z,6.70
2018-12-04T01:45:27.192Z,6.70
2018-12-04T01:47:55.382Z,6.60
2018-12-04T01:50:23.558Z,6.60
2018-12-04T01:52:51.748Z,6.60
2018-12-04T01:55:19.928Z,6.60
2018-12-04T01:57:48.154Z,6.60
2018-12-04T02:00:16.320Z,6.60
2018-12-04T02:02:44.527Z,6.60
2018-12-04T02:05:12.742Z,6.70
2018-12-04T02:07:40.949Z,6.70
2018-12-04T02:10:09.155Z,6.60
2018-12-04T02:12:37.362Z,6.60
2018-12-04T02:15:05.695Z,6.50
2018-12-04T02:17:33.887Z,6.60
2018-12-04T02:20:02.126Z,6.60
2018-12-04T02:22:30.321Z,6.70
2018-12-04T02:24:58.526Z,6.60
2018-12-04T02:27:26.704Z,6.70
2018-12-04T02:29:54.899Z,6.60
2018-12-04T02:32:23.061Z,6.70
2018-12-04T02:34:51.234Z,6.60
2018-12-04T02:37:19.468Z,6.60
2018-12-04T02:39:47.638Z,6.60
2018-12-04T02:42:17.755Z,6.60
2018-12-04T02:44:45.943Z,6.70
2018-12-04T02:47:14.118Z,6.60
2018-12-04T02:49:42.354Z,6.60
2018-12-04T02:52:10.552Z,6.60
2018-12-04T02:54:38.737Z,6.60
2018-12-04T02:57:06.987Z,6.60
2018-12-04T02:59:35.326Z,6.60
2018-12-04T03:02:03.833Z,6.70
2018-12-04T03:04:31.999Z,6.70
2018-12-04T03:07:00.196Z,6.60
2018-12-04T03:09:28.372Z,6.60
2018-12-04T03:11:56.608Z,6.60
2018-12-04T03:14:24.850Z,6.70
2018-12-04T03:16:53.075Z,6.60
2018-12-04T03:19:21.255Z,6.70
2018-12-04T03:21:49.425Z,6.70
2018-12-04T03:24:17.621Z,6.70
2018-12-04T03:26:46.305Z,6.70
2018-12-04T03:29:14.461Z,6.80
2018-12-04T03:31:42.642Z,6.80
2018-12-04T03:34:10.868Z,6.80
2018-12-04T03:36:39.029Z,6.80
2018-12-04T03:39:07.868Z,6.80
2018-12-04T03:41:36.091Z,6.80
2018-12-04T03:44:04.335Z,6.90
2018-12-04T03:46:32.535Z,6.90
2018-12-04T03:49:00.744Z,6.90
2018-12-04T03:51:28.915Z,6.90
2018-12-04T03:53:57.114Z,6.90
2018-12-04T03:56:25.283Z,6.90
2018-12-04T03:58:53.522Z,7.00
2018-12-04T04:01:21.732Z,7.10
2018-12-04T04:03:49.961Z,7.10
2018-12-04T04:06:18.140Z,7.10
2018-12-04T04:08:46.339Z,7.10
2018-12-04T04:11:14.497Z,7.20
2018-12-04T04:13:42.667Z,7.20
2018-12-04T04:16:10.905Z,7.20
2018-12-04T04:18:39.070Z,7.20
2018-12-04T04:21:07.285Z,7.20
2018-12-04T04:23:35.481Z,7.20
2018-12-04T04:26:03.758Z,7.20
2018-12-04T04:28:31.971Z,7.20
2018-12-04T04:31:00.131Z,7.20
2018-12-04T04:33:28.296Z,7.30
2018-12-04T04:35:58.091Z,7.30
2018-12-04T04:38:26.273Z,7.30
2018-12-04T04:40:54.522Z,7.30
2018-12-04T04:43:22.690Z,7.30
2018-12-04T04:45:50.867Z,7.30
2018-12-04T04:48:19.061Z,7.40
2018-12-04T04:50:47.261Z,7.40
2018-12-04T04:53:15.439Z,7.40
2018-12-04T04:55:43.666Z,7.40
2018-12-04T04:58:11.832Z,7.40
2018-12-04T05:00:40.042Z,7.40
2018-12-04T05:03:08.259Z,7.50
2018-12-04T05:05:37.446Z,7.40
2018-12-04T05:08:05.618Z,7.40
2018-12-04T05:10:33.823Z,7.40
2018-12-04T05:13:02.013Z,7.50
2018-12-04T05:15:30.196Z,7.50
2018-12-04T05:17:58.429Z,7.50
2018-12-04T05:20:26.649Z,7.50
2018-12-04T05:22:54.810Z,7.60
2018-12-04T05:25:23.118Z,7.70
2018-12-04T05:27:51.316Z,7.60
2018-12-04T05:30:19.596Z,7.60
2018-12-04T05:32:47.841Z,7.70
2018-12-04T05:35:16.039Z,7.70
2018-12-04T05:37:44.212Z,7.70
2018-12-04T05:40:12.409Z,7.70
2018-12-04T05:42:40.589Z,7.70
2018-12-04T05:45:08.845Z,7.80
2018-12-04T05:47:37.013Z,7.80
2018-12-04T05:50:06.119Z,7.80
2018-12-04T05:52:35.219Z,7.80
2018-12-04T05:55:03.531Z,7.80
2018-12-04T05:57:31.701Z,7.80
2018-12-04T05:59:59.878Z,7.80
2018-12-04T06:02:28.077Z,7.80
2018-12-04T06:04:56.281Z,7.80
2018-12-04T06:07:24.521Z,7.80
2018-12-04T06:09:52.746Z,7.80
2018-12-04T06:12:20.972Z,7.80
2018-12-04T06:14:49.161Z,7.90
2018-12-04T06:17:17.471Z,7.80
2018-12-04T06:19:45.626Z,7.80
2018-12-04T06:22:13.825Z,7.80
2018-12-04T06:24:42.083Z,7.80
2018-12-04T06:27:10.391Z,7.80
2018-12-04T06:29:38.560Z,7.80
2018-12-04T06:32:06.734Z,7.80
2018-12-04T06:34:34.973Z,7.90
2018-12-04T06:37:03.142Z,7.80
2018-12-04T06:39:31.366Z,7.80
2018-12-04T06:41:59.580Z,7.90
2018-12-04T06:44:27.803Z,7.80
2018-12-04T06:46:55.973Z,7.90
2018-12-04T06:49:24.211Z,7.80
2018-12-04T06:51:52.406Z,7.90
2018-12-04T06:54:20.620Z,7.90
2018-12-04T06:56:48.855Z,7.90
2018-12-04T06:59:17.006Z,7.90
2018-12-04T07:01:45.175Z,7.90
2018-12-04T07:04:13.357Z,8.00
2018-12-04T07:06:41.617Z,8.10
2018-12-04T07:09:09.820Z,8.10
2018-12-04T07:11:37.983Z,8.20
2018-12-04T07:14:06.145Z,8.20
2018-12-04T07:16:34.341Z,8.10
2018-12-04T07:19:02.573Z,8.10
2018-12-04T07:21:30.746Z,8.10
2018-12-04T07:23:58.959Z,8.20
2018-12-04T07:26:27.187Z,8.20
2018-12-04T07:28:55.389Z,8.20
2018-12-04T07:31:23.560Z,8.20
2018-12-04T07:33:51.769Z,8.30
2018-12-04T07:36:19.980Z,8.30
2018-12-04T07:38:48.162Z,8.30
2018-12-04T07:41:16.377Z,8.30
2018-12-04T07:43:44.578Z,8.30
2018-12-04T07:46:12.849Z,8.30
2018-12-04T07:48:41.055Z,8.40
2018-12-04T07:51:09.294Z,8.50
2018-12-04T07:53:37.504Z,8.50
2018-12-04T07:56:05.706Z,8.50
2018-12-04T07:58:33.886Z,8.60
2018-12-04T08:01:02.089Z,8.60
2018-12-04T08:03:30.262Z,8.60
2018-12-04T08:06:00.416Z,8.60
2018-12-04T08:08:28.606Z,8.60
2018-12-04T08:10:56.810Z,8.60
2018-12-04T08:13:25.124Z,8.70
2018-12-04T08:15:53.292Z,8.60
2018-12-04T08:18:21.465Z,8.60
2018-12-04T08:20:49.651Z,8.80
2018-12-04T08:23:17.854Z,9.00
2018-12-04T08:25:46.105Z,8.90
2018-12-04T08:28:14.321Z,9.00
2018-12-04T08:30:42.537Z,9.10
2018-12-04T08:33:10.697Z,9.10
2018-12-04T08:35:38.850Z,9.10
2018-12-04T08:38:07.117Z,9.10
2018-12-04T08:40:35.282Z,9.20
2018-12-04T08:43:03.472Z,9.20
2018-12-04T08:45:32.408Z,9.10
2018-12-04T08:48:00.568Z,9.20
2018-12-04T08:50:28.734Z,9.30
2018-12-04T08:52:56.935Z,9.20
2018-12-04T08:55:25.140Z,9.20
2018-12-04T08:58:13.104Z,9.30
2018-12-04T09:00:41.413Z,9.20
2018-12-04T09:03:09.576Z,9.10
2018-12-04T09:05:38.385Z,9.10
2018-12-04T09:08:09.376Z,9.10
2018-12-04T09:10:36.757Z,9.10
2018-12-04T09:13:05.041Z,9.10
2018-12-04T09:15:33.248Z,9.00
2018-12-04T09:18:01.422Z,8.90
2018-12-04T09:20:29.696Z,8.90
2018-12-04T09:22:58.578Z,8.90
2018-12-04T09:25:27.080Z,8.80
2018-12-04T09:27:55.884Z,8.80
2018-12-04T09:30:24.234Z,8.70
2018-12-04T09:32:52.397Z,8.70
2018-12-04T09:35:20.665Z,8.60
2018-12-04T09:37:48.829Z,8.50
2018-12-04T09:40:16.993Z,8.50
2018-12-04T09:42:45.269Z,8.40
2018-12-04T09:45:13.564Z,8.40
2018-12-04T09:47:41.836Z,8.30
2018-12-04T09:50:10.060Z,8.30
2018-12-04T09:52:38.308Z,8.30
2018-12-04T09:55:06.855Z,8.30
2018-12-04T09:57:35.051Z,8.30
2018-12-04T10:00:04.294Z,8.40
2018-12-04T10:02:32.461Z,8.40
2018-12-04T10:05:00.625Z,8.40
2018-12-04T10:07:28.889Z,8.40
2018-12-04T10:10:00.583Z,8.40
2018-12-04T10:12:27.302Z,8.50
2018-12-04T10:14:55.499Z,8.40
2018-12-04T10:17:23.688Z,8.30
2018-12-04T10:19:51.882Z,8.20
2018-12-04T10:22:20.095Z,8.10
2018-12-04T10:24:48.330Z,8.10
2018-12-04T10:27:16.547Z,8.00
2018-12-04T10:29:44.770Z,7.90
2018-12-04T10:32:12.963Z,7.60
2018-12-04T10:34:41.129Z,7.60
2018-12-04T10:37:09.391Z,7.60
2018-12-04T10:39:37.562Z,7.60
2018-12-04T10:42:05.789Z,7.60
2018-12-04T10:44:34.042Z,7.60
2018-12-04T10:47:02.266Z,7.70
2018-12-04T10:49:30.442Z,7.70
2018-12-04T10:51:58.629Z,7.80
2018-12-04T10:54:26.824Z,7.80
2018-12-04T10:56:55.089Z,7.80
2018-12-04T10:59:23.338Z,7.80
2018-12-04T11:04:53.098Z,7.80
2018-12-04T11:07:21.312Z,7.20
2018-12-04T11:09:49.508Z,7.20
2018-12-04T11:12:17.760Z,7.10
2018-12-04T11:14:45.924Z,7.00
2018-12-04T11:17:14.157Z,7.00
2018-12-04T11:19:42.311Z,6.80
2018-12-04T11:22:10.474Z,6.80
2018-12-04T11:24:38.675Z,6.80
2018-12-04T11:27:06.867Z,6.90
2018-12-04T11:29:35.236Z,7.00
2018-12-04T11:32:03.492Z,6.90
2018-12-04T11:34:31.725Z,7.00
2018-12-04T11:36:59.987Z,7.00
2018-12-04T11:39:28.157Z,6.90
2018-12-04T11:41:56.379Z,6.90
2018-12-04T11:44:24.553Z,7.00
2018-12-04T11:46:52.730Z,7.00
2018-12-04T11:49:21.105Z,7.00
2018-12-04T11:51:49.251Z,7.00
2018-12-04T11:54:17.411Z,7.00
2018-12-04T11:56:45.649Z,7.00
2018-12-04T11:59:13.933Z,6.90
2018-12-04T12:01:42.100Z,6.90
2018-12-04T12:04:10.309Z,6.80
2018-12-04T12:06:38.509Z,6.80
2018-12-04T12:09:08.717Z,6.70
2018-12-04T12:11:36.924Z,6.50
2018-12-04T12:14:05.152Z,6.50
2018-12-04T12:16:33.405Z,6.50
2018-12-04T12:19:01.600Z,6.50
2018-12-04T12:21:29.768Z,6.50
2018-12-04T12:23:57.981Z,6.60
2018-12-04T12:26:26.149Z,6.70
2018-12-04T12:28:54.309Z,6.70
2018-12-04T12:31:22.509Z,6.90
2018-12-04T12:33:50.674Z,6.90
2018-12-04T12:36:18.958Z,6.90
2018-12-04T12:38:47.157Z,6.90
2018-12-04T12:41:15.411Z,7.00
2018-12-04T12:43:44.530Z,7.00
2018-12-04T12:46:12.999Z,7.10
2018-12-04T12:48:41.289Z,7.10
2018-12-04T12:51:09.487Z,7.20
2018-12-04T12:53:37.684Z,7.20
2018-12-04T12:56:05.883Z,7.20
2018-12-04T12:58:34.088Z,7.30
2018-12-04T13:01:02.312Z,7.40
2018-12-04T13:03:30.475Z,7.40
2018-12-04T13:05:58.682Z,7.40
2018-12-04T13:08:31.977Z,7.40
2018-12-04T13:11:00.191Z,7.40
2018-12-04T13:13:28.644Z,7.40
2018-12-04T13:15:57.096Z,7.40
2018-12-04T13:18:25.339Z,7.40
2018-12-04T13:20:53.575Z,7.50
2018-12-04T13:23:21.789Z,7.50
2018-12-04T13:25:49.998Z,7.50
2018-12-04T13:28:18.159Z,7.60
2018-12-04T13:30:46.444Z,7.60
2018-12-04T13:33:14.656Z,7.60
2018-12-04T13:35:42.858Z,7.50
2018-12-04T13:38:11.077Z,7.50
2018-12-04T13:40:39.683Z,7.50
2018-12-04T13:43:07.859Z,7.50
2018-12-04T13:45:36.052Z,7.50
2018-12-04T13:48:04.270Z,7.40
2018-12-04T13:50:32.441Z,7.40
2018-12-04T13:53:00.650Z,7.40
2018-12-04T13:55:28.855Z,7.30
2018-12-04T13:57:57.006Z,7.30
2018-12-04T14:00:25.218Z,7.20
2018-12-04T14:02:53.405Z,7.30
2018-12-04T14:05:21.622Z,7.20
2018-12-04T14:07:49.869Z,7.20
2018-12-04T14:10:18.171Z,7.10
2018-12-04T14:12:46.346Z,7.20
2018-12-04T14:15:14.891Z,7.10
2018-12-04T14:17:43.110Z,7.10
2018-12-04T14:20:11.323Z,7.00
2018-12-04T14:22:39.573Z,7.00
2018-12-04T14:25:07.873Z,7.00
2018-12-04T14:27:36.075Z,7.00
2018-12-04T14:30:08.300Z,7.00
2018-12-04T14:32:36.555Z,6.90
2018-12-04T14:35:05.110Z,6.90
2018-12-04T14:37:33.351Z,6.90
2018-12-04T14:40:01.585Z,6.90
2018-12-04T14:42:30.018Z,6.90
2018-12-04T14:44:58.261Z,6.90
2018-12-04T14:47:26.465Z,6.80
2018-12-04T14:49:54.832Z,6.80
2018-12-04T14:52:23.125Z,6.80
2018-12-04T14:54:51.407Z,6.80
2018-12-04T14:57:19.618Z,6.80
2018-12-04T14:59:47.991Z,6.70
2018-12-04T15:02:16.271Z,6.70
2018-12-04T15:04:44.434Z,6.70
2018-12-04T15:07:12.679Z,6.70
2018-12-04T15:09:41.047Z,6.60
2018-12-04T15:12:09.231Z,6.50
2018-12-04T15:14:37.444Z,6.60
2018-12-04T15:17:05.604Z,6.50
2018-12-04T15:19:33.906Z,6.50
2018-12-04T15:22:02.130Z,6.50
2018-12-04T15:24:30.303Z,6.50
2018-12-04T15:26:58.564Z,6.50
2018-12-04T15:29:26.783Z,6.40
2018-12-04T15:31:54.951Z,6.20
2018-12-04T15:34:23.157Z,6.20
2018-12-04T15:36:56.524Z,6.10
2018-12-04T15:39:21.669Z,6.10
2018-12-04T15:41:49.920Z,6.10
2018-12-04T15:44:18.621Z,6.10
2018-12-04T15:46:46.827Z,6.00
2018-12-04T15:49:15.009Z,6.20
2018-12-04T15:51:43.385Z,6.10
2018-12-04T15:54:11.987Z,6.20
2018-12-04T15:56:40.233Z,6.10
2018-12-04T15:59:08.459Z,6.00
2018-12-04T16:01:36.619Z,5.90
2018-12-04T16:04:04.922Z,5.90
2018-12-04T16:06:33.268Z,5.90
2018-12-04T16:09:01.512Z,5.80
2018-12-04T16:11:29.685Z,5.80
2018-12-04T16:13:57.887Z,5.80
2018-12-04T16:16:26.074Z,5.70
2018-12-04T16:18:54.288Z,5.70
2018-12-04T16:21:22.492Z,5.60
2018-12-04T16:23:50.660Z,5.60
2018-12-04T16:26:18.825Z,5.60
2018-12-04T16:28:47.033Z,5.50
2018-12-04T16:31:15.209Z,5.50
2018-12-04T16:33:43.937Z,5.50
2018-12-04T16:36:12.292Z,5.50
2018-12-04T16:38:40.459Z,5.50
2018-12-04T16:41:08.769Z,5.50
2018-12-04T16:43:37.175Z,5.50
2018-12-04T16:46:05.425Z,5.50
2018-12-04T16:48:33.614Z,5.50
2018-12-04T16:51:07.235Z,5.50
2018-12-04T16:53:35.476Z,5.50
2018-12-04T16:56:03.634Z,5.40
2018-12-04T16:58:32.183Z,5.50
2018-12-04T17:01:00.371Z,5.40
2018-12-04T17:03:28.584Z,5.30
2018-12-04T17:05:56.793Z,5.20
2018-12-04T17:08:24.975Z,5.20
2018-12-04T17:10:53.153Z,5.20
2018-12-04T17:13:21.413Z,5.20
2018-12-04T17:15:50.070Z,5.20
2018-12-04T17:18:18.236Z,5.10
2018-12-04T17:20:46.452Z,5.10
2018-12-04T17:23:37.765Z,5.00
2018-12-04T17:26:06.091Z,5.10
2018-12-04T17:28:34.288Z,5.00
2018-12-04T17:31:02.620Z,4.90
2018-12-04T17:33:30.835Z,4.90
2018-12-04T17:35:59.028Z,4.80
2018-12-04T17:38:27.227Z,4.80
2018-12-04T17:40:55.504Z,4.80
2018-12-04T17:43:23.756Z,4.80
2018-12-04T17:45:51.970Z,4.70
2018-12-04T17:48:20.561Z,4.70
2018-12-04T17:50:48.776Z,4.70
2018-12-04T17:53:17.051Z,4.70
2018-12-04T17:55:45.262Z,4.60
2018-12-04T17:58:13.454Z,4.60
2018-12-04T18:00:41.702Z,4.60
2018-12-04T18:03:09.980Z,4.60
2018-12-04T18:05:38.145Z,4.70
2018-12-04T18:08:06.333Z,4.60
2018-12-04T18:10:34.537Z,4.60
2018-12-04T18:13:02.759Z,4.60
2018-12-04T18:15:30.929Z,4.60
2018-12-04T18:17:59.161Z,4.60
2018-12-04T18:20:27.338Z,4.60
2018-12-04T18:22:55.516Z,4.70
2018-12-04T18:25:23.882Z,4.70
2018-12-04T18:27:52.049Z,4.70
2018-12-04T18:30:20.247Z,4.60
2018-12-04T18:32:48.433Z,4.60
2018-12-04T18:35:17.510Z,4.70
2018-12-04T18:37:45.695Z,4.70
2018-12-04T18:40:14.009Z,4.60
2018-12-04T18:42:42.217Z,4.60
2018-12-04T18:45:10.436Z,4.60
2018-12-04T18:47:38.661Z,4.60
2018-12-04T18:50:08.126Z,4.60
2018-12-04T18:52:36.527Z,4.60
2018-12-04T18:55:04.940Z,4.50
2018-12-04T18:57:33.160Z,4.50
2018-12-04T19:00:01.450Z,4.60
2018-12-04T19:02:29.698Z,4.50
2018-12-04T19:04:57.921Z,4.50
2018-12-04T19:07:26.262Z,4.50
2018-12-04T19:09:54.481Z,4.50
2018-12-04T19:12:22.706Z,4.40
2018-12-04T19:14:50.881Z,4.40
2018-12-04T19:17:19.092Z,4.40
2018-12-04T19:19:47.362Z,4.40
2018-12-04T19:22:15.596Z,4.30
2018-12-04T19:24:44.930Z,4.30
2018-12-04T19:27:13.707Z,4.30
2018-12-04T19:29:41.919Z,4.30
2018-12-04T19:32:10.161Z,4.30
2018-12-04T19:34:39.245Z,4.30
2018-12-04T19:37:08.447Z,4.20
2018-12-04T19:39:37.165Z,4.20
2018-12-04T19:42:05.385Z,4.20
2018-12-04T19:44:35.135Z,4.20
2018-12-04T19:47:03.711Z,4.20
2018-12-04T19:49:31.870Z,4.20
2018-12-04T19:52:00.056Z,4.10
2018-12-04T19:54:28.322Z,4.10
2018-12-04T19:56:56.553Z,4.10
2018-12-04T19:59:24.747Z,4.10
2018-12-04T20:01:52.941Z,4.10
2018-12-04T20:04:21.242Z,4.10
2018-12-04T20:06:50.340Z,4.10
2018-12-04T20:09:18.607Z,4.00
2018-12-04T20:11:46.955Z,4.10
2018-12-04T20:14:15.128Z,4.00
2018-12-04T20:16:43.297Z,4.00
2018-12-04T20:19:11.510Z,4.00
2018-12-04T20:21:39.735Z,4.00
2018-12-04T20:24:07.931Z,3.90
2018-12-04T20:26:36.152Z,3.90
2018-12-04T20:29:04.475Z,3.90
2018-12-04T20:31:32.660Z,3.90
2018-12-04T20:34:00.865Z,3.90
2018-12-04T20:36:29.048Z,3.80
2018-12-04T20:38:57.374Z,3.80
2018-12-04T20:41:26.967Z,3.80
2018-12-04T20:43:55.374Z,3.70
2018-12-04T20:46:23.805Z,3.70
2018-12-04T20:48:52.000Z,3.70
2018-12-04T20:51:20.865Z,3.70
2018-12-04T20:53:49.599Z,3.60
2018-12-04T20:56:17.902Z,3.60
2018-12-04T20:58:46.319Z,3.60
2018-12-04T21:01:14.552Z,3.60
2018-12-04T21:03:42.771Z,3.50
2018-12-04T21:06:10.943Z,3.50
2018-12-04T21:08:39.199Z,3.40
2018-12-04T21:11:07.462Z,3.40
2018-12-04T21:13:36.434Z,3.30
2018-12-04T21:16:05.609Z,3.40
2018-12-04T21:18:34.114Z,3.30
2018-12-04T21:21:02.374Z,3.20
2018-12-04T21:23:30.544Z,3.30
2018-12-04T21:25:59.437Z,3.40
2018-12-04T21:28:27.614Z,3.30
2018-12-04T21:31:01.313Z,3.20
2018-12-04T21:36:42.013Z,3.10
2018-12-04T21:39:24.151Z,3.10
2018-12-04T21:42:00.406Z,3.10
2018-12-04T21:44:34.601Z,3.10
2018-12-04T21:50:07.857Z,3.10
2018-12-04T21:52:36.028Z,3.10
2018-12-04T21:55:04.937Z,3.30
2018-12-04T21:57:33.184Z,3.10
2018-12-04T22:00:01.362Z,3.10
2018-12-04T22:02:29.543Z,3.00
2018-12-04T22:04:57.768Z,3.20
2018-12-04T22:07:25.932Z,3.20
2018-12-04T22:09:54.110Z,3.20
2018-12-04T22:12:22.334Z,3.00
2018-12-04T22:14:50.505Z,2.80
2018-12-04T22:17:18.677Z,2.90
2018-12-04T22:19:46.884Z,2.90
2018-12-04T22:22:15.064Z,2.80
2018-12-04T22:24:43.228Z,2.80
2018-12-04T22:27:11.467Z,2.90
2018-12-04T22:29:39.645Z,2.80
2018-12-04T22:32:07.814Z,2.80
2018-12-04T22:34:36.016Z,2.70
2018-12-04T22:37:04.261Z,2.80
2018-12-04T22:39:32.419Z,2.70
2018-12-04T22:42:00.633Z,2.70
2018-12-04T22:44:28.844Z,2.70
2018-12-04T22:46:57.087Z,2.70
2018-12-04T22:49:25.339Z,2.70
2018-12-04T22:51:53.505Z,2.70
2018-12-04T22:54:21.721Z,2.60
2018-12-04T22:56:49.935Z,2.70
2018-12-04T22:59:18.105Z,2.60
2018-12-04T23:01:46.370Z,2.70
2018-12-04T23:04:14.663Z,2.60
2018-12-04T23:06:42.871Z,2.60
2018-12-04T23:09:11.121Z,2.60
2018-12-04T23:11:39.815Z,2.60
2018-12-04T23:14:08.060Z,2.70
2018-12-04T23:16:36.473Z,2.60
2018-12-04T23:19:05.475Z,2.60
2018-12-04T23:21:33.637Z,2.60
2018-12-04T23:24:01.804Z,2.60
2018-12-04T23:26:30.041Z,2.50
2018-12-04T23:28:58.196Z,2.50
2018-12-04T23:31:26.433Z,2.60
2018-12-04T23:33:54.659Z,2.50
2018-12-04T23:36:22.867Z,2.40
2018-12-04T23:38:51.040Z,2.50
2018-12-04T23:41:19.245Z,2.50
2018-12-04T23:43:47.418Z,2.40
2018-12-04T23:46:15.642Z,2.40
2018-12-04T23:48:44.025Z,2.50
2018-12-04T23:51:12.188Z,2.50
2018-12-04T23:53:40.356Z,2.40
2018-12-04T23:56:08.555Z,2.40
2018-12-04T23:58:36.731Z,2.40
